sensor_id;sensor_type;location;lat;lon;timestamp;P1;durP1;ratioP1;P2;durP2;ratioP2
70558;SDS011;58108;48.094;11.838;2024-03-02T00:02:18;10.17;;;3.17;;
70558;SDS011;58108;48.094;11.838;2024-03-02T00:04:44;8.93;;;3.27;;
70558;SDS011;58108;48.094;11.838;2024-03-02T00:07:10;8.27;;;3.03;;
70558;SDS011;58108;48.094;11.838;2024-03-02T00:09:39;8.30;;;2.90;;
70558;SDS011;58108;48.094;11.838;2024-03-02T00:12:05;9.73;;;3.50;;
70558;SDS011;58108;48.094;11.838;2024-03-02T00:14:31;8.60;;;3.27;;
70558;SDS011;58108;48.094;11.838;2024-03-02T00:16:57;9.15;;;3.47;;
70558;SDS011;58108;48.094;11.838;2024-03-02T00:19:22;9.70;;;3.83;;
70558;SDS011;58108;48.094;11.838;2024-03-02T00:21:48;8.43;;;3.22;;
70558;SDS011;58108;48.094;11.838;2024-03-02T00:24:34;10.30;;;3.25;;
70558;SDS011;58108;48.094;11.838;2024-03-02T00:27:00;9.10;;;3.70;;
70558;SDS011;58108;48.094;11.838;2024-03-02T00:29:29;10.55;;;3.70;;
70558;SDS011;58108;48.094;11.838;2024-03-02T00:31:54;9.07;;;3.30;;
70558;SDS011;58108;48.094;11.838;2024-03-02T00:34:21;9.40;;;3.75;;
70558;SDS011;58108;48.094;11.838;2024-03-02T00:36:47;9.95;;;3.72;;
70558;SDS011;58108;48.094;11.838;2024-03-02T00:39:14;7.90;;;3.30;;
70558;SDS011;58108;48.094;11.838;2024-03-02T00:41:42;10.77;;;3.53;;
70558;SDS011;58108;48.094;11.838;2024-03-02T00:44:07;12.10;;;3.88;;
70558;SDS011;58108;48.094;11.838;2024-03-02T00:46:37;10.00;;;3.87;;
70558;SDS011;58108;48.094;11.838;2024-03-02T00:49:21;11.13;;;4.30;;
70558;SDS011;58108;48.094;11.838;2024-03-02T00:51:48;9.75;;;4.05;;
70558;SDS011;58108;48.094;11.838;2024-03-02T00:54:20;10.75;;;4.00;;
70558;SDS011;58108;48.094;11.838;2024-03-02T00:56:48;10.07;;;3.88;;
70558;SDS011;58108;48.094;11.838;2024-03-02T00:59:14;12.00;;;4.00;;
70558;SDS011;58108;48.094;11.838;2024-03-02T01:01:40;11.52;;;4.30;;
70558;SDS011;58108;48.094;11.838;2024-03-02T01:04:05;9.53;;;3.77;;
70558;SDS011;58108;48.094;11.838;2024-03-02T01:06:31;10.27;;;4.10;;
70558;SDS011;58108;48.094;11.838;2024-03-02T01:08:56;10.38;;;4.32;;
70558;SDS011;58108;48.094;11.838;2024-03-02T01:11:22;11.50;;;4.30;;
70558;SDS011;58108;48.094;11.838;2024-03-02T01:13:48;12.20;;;4.27;;
70558;SDS011;58108;48.094;11.838;2024-03-02T01:16:13;12.63;;;4.75;;
70558;SDS011;58108;48.094;11.838;2024-03-02T01:18:40;11.98;;;4.90;;
70558;SDS011;58108;48.094;11.838;2024-03-02T01:21:07;13.37;;;5.10;;
70558;SDS011;58108;48.094;11.838;2024-03-02T01:23:32;13.80;;;5.10;;
70558;SDS011;58108;48.094;11.838;2024-03-02T01:25:58;12.77;;;5.03;;
70558;SDS011;58108;48.094;11.838;2024-03-02T01:28:23;13.82;;;5.32;;
70558;SDS011;58108;48.094;11.838;2024-03-02T01:30:49;14.70;;;5.70;;
70558;SDS011;58108;48.094;11.838;2024-03-02T01:33:16;15.57;;;5.50;;
70558;SDS011;58108;48.094;11.838;2024-03-02T01:35:43;12.35;;;5.32;;
70558;SDS011;58108;48.094;11.838;2024-03-02T01:38:08;15.07;;;5.75;;
70558;SDS011;58108;48.094;11.838;2024-03-02T01:40:34;14.00;;;5.37;;
70558;SDS011;58108;48.094;11.838;2024-03-02T01:43:00;13.10;;;5.25;;
70558;SDS011;58108;48.094;11.838;2024-03-02T01:45:27;14.97;;;5.87;;
70558;SDS011;58108;48.094;11.838;2024-03-02T01:47:53;14.73;;;5.82;;
70558;SDS011;58108;48.094;11.838;2024-03-02T01:50:28;14.63;;;5.73;;
70558;SDS011;58108;48.094;11.838;2024-03-02T01:52:56;12.77;;;5.63;;
70558;SDS011;58108;48.094;11.838;2024-03-02T01:55:22;13.80;;;5.53;;
70558;SDS011;58108;48.094;11.838;2024-03-02T01:57:50;14.63;;;6.07;;
70558;SDS011;58108;48.094;11.838;2024-03-02T02:00:21;15.60;;;5.85;;
70558;SDS011;58108;48.094;11.838;2024-03-02T02:02:50;15.02;;;6.15;;
70558;SDS011;58108;48.094;11.838;2024-03-02T02:05:16;15.80;;;6.30;;
70558;SDS011;58108;48.094;11.838;2024-03-02T02:07:42;19.70;;;7.10;;
70558;SDS011;58108;48.094;11.838;2024-03-02T02:10:08;18.38;;;7.13;;
70558;SDS011;58108;48.094;11.838;2024-03-02T02:12:34;17.38;;;6.97;;
70558;SDS011;58108;48.094;11.838;2024-03-02T02:15:00;19.10;;;6.90;;
70558;SDS011;58108;48.094;11.838;2024-03-02T02:17:26;19.20;;;7.27;;
70558;SDS011;58108;48.094;11.838;2024-03-02T02:19:52;19.08;;;7.07;;
70558;SDS011;58108;48.094;11.838;2024-03-02T02:22:17;18.37;;;7.30;;
70558;SDS011;58108;48.094;11.838;2024-03-02T02:24:43;18.90;;;7.73;;
70558;SDS011;58108;48.094;11.838;2024-03-02T02:27:08;18.20;;;7.28;;
70558;SDS011;58108;48.094;11.838;2024-03-02T02:29:35;16.83;;;7.00;;
70558;SDS011;58108;48.094;11.838;2024-03-02T02:32:01;19.38;;;6.80;;
70558;SDS011;58108;48.094;11.838;2024-03-02T02:34:26;15.25;;;6.65;;
70558;SDS011;58108;48.094;11.838;2024-03-02T02:36:52;17.67;;;6.70;;
70558;SDS011;58108;48.094;11.838;2024-03-02T02:39:18;16.25;;;6.43;;
70558;SDS011;58108;48.094;11.838;2024-03-02T02:41:47;17.17;;;6.95;;
70558;SDS011;58108;48.094;11.838;2024-03-02T02:44:13;20.17;;;6.60;;
70558;SDS011;58108;48.094;11.838;2024-03-02T02:46:39;17.13;;;6.55;;
70558;SDS011;58108;48.094;11.838;2024-03-02T02:49:05;16.00;;;6.57;;
70558;SDS011;58108;48.094;11.838;2024-03-02T02:51:31;15.97;;;6.83;;
70558;SDS011;58108;48.094;11.838;2024-03-02T02:53:56;17.42;;;6.50;;
70558;SDS011;58108;48.094;11.838;2024-03-02T02:56:22;15.97;;;6.90;;
70558;SDS011;58108;48.094;11.838;2024-03-02T02:58:47;16.10;;;6.63;;
70558;SDS011;58108;48.094;11.838;2024-03-02T03:01:13;14.70;;;6.13;;
70558;SDS011;58108;48.094;11.838;2024-03-02T03:03:42;17.37;;;6.97;;
70558;SDS011;58108;48.094;11.838;2024-03-02T03:06:07;18.02;;;7.22;;
70558;SDS011;58108;48.094;11.838;2024-03-02T03:08:33;16.53;;;7.07;;
70558;SDS011;58108;48.094;11.838;2024-03-02T03:10:58;17.77;;;6.80;;
70558;SDS011;58108;48.094;11.838;2024-03-02T03:13:24;16.60;;;6.85;;
70558;SDS011;58108;48.094;11.838;2024-03-02T03:15:49;16.17;;;6.53;;
70558;SDS011;58108;48.094;11.838;2024-03-02T03:18:15;15.73;;;6.20;;
70558;SDS011;58108;48.094;11.838;2024-03-02T03:20:40;17.13;;;6.88;;
70558;SDS011;58108;48.094;11.838;2024-03-02T03:23:06;17.42;;;6.47;;
70558;SDS011;58108;48.094;11.838;2024-03-02T03:25:31;16.90;;;7.03;;
70558;SDS011;58108;48.094;11.838;2024-03-02T03:27:57;20.33;;;7.17;;
70558;SDS011;58108;48.094;11.838;2024-03-02T03:30:22;19.77;;;6.22;;
70558;SDS011;58108;48.094;11.838;2024-03-02T03:32:48;15.70;;;6.93;;
70558;SDS011;58108;48.094;11.838;2024-03-02T03:35:13;16.67;;;6.60;;
70558;SDS011;58108;48.094;11.838;2024-03-02T03:37:43;18.15;;;7.15;;
70558;SDS011;58108;48.094;11.838;2024-03-02T03:40:09;19.73;;;7.30;;
70558;SDS011;58108;48.094;11.838;2024-03-02T03:42:38;16.93;;;6.90;;
70558;SDS011;58108;48.094;11.838;2024-03-02T03:45:04;18.10;;;7.65;;
70558;SDS011;58108;48.094;11.838;2024-03-02T03:47:32;20.10;;;7.85;;
70558;SDS011;58108;48.094;11.838;2024-03-02T03:49:57;18.48;;;7.53;;
70558;SDS011;58108;48.094;11.838;2024-03-02T03:52:23;21.45;;;7.65;;
70558;SDS011;58108;48.094;11.838;2024-03-02T03:54:49;20.52;;;8.45;;
70558;SDS011;58108;48.094;11.838;2024-03-02T03:57:15;20.30;;;7.93;;
70558;SDS011;58108;48.094;11.838;2024-03-02T03:59:41;18.83;;;7.35;;
70558;SDS011;58108;48.094;11.838;2024-03-02T04:02:07;18.00;;;7.67;;
70558;SDS011;58108;48.094;11.838;2024-03-02T04:04:33;21.33;;;8.18;;
70558;SDS011;58108;48.094;11.838;2024-03-02T04:06:59;20.33;;;7.60;;
70558;SDS011;58108;48.094;11.838;2024-03-02T04:09:24;20.35;;;7.57;;
70558;SDS011;58108;48.094;11.838;2024-03-02T04:11:50;19.50;;;7.78;;
70558;SDS011;58108;48.094;11.838;2024-03-02T04:14:16;20.10;;;7.40;;
70558;SDS011;58108;48.094;11.838;2024-03-02T04:16:42;20.23;;;7.97;;
70558;SDS011;58108;48.094;11.838;2024-03-02T04:19:08;22.33;;;8.17;;
70558;SDS011;58108;48.094;11.838;2024-03-02T04:21:33;21.80;;;8.70;;
70558;SDS011;58108;48.094;11.838;2024-03-02T04:23:59;21.50;;;8.15;;
70558;SDS011;58108;48.094;11.838;2024-03-02T04:26:24;20.57;;;7.77;;
70558;SDS011;58108;48.094;11.838;2024-03-02T04:28:51;17.90;;;7.78;;
70558;SDS011;58108;48.094;11.838;2024-03-02T04:31:16;18.88;;;7.10;;
70558;SDS011;58108;48.094;11.838;2024-03-02T04:33:42;18.38;;;6.95;;
70558;SDS011;58108;48.094;11.838;2024-03-02T04:36:08;20.30;;;7.47;;
70558;SDS011;58108;48.094;11.838;2024-03-02T04:38:35;19.30;;;7.60;;
70558;SDS011;58108;48.094;11.838;2024-03-02T04:41:01;17.45;;;7.32;;
70558;SDS011;58108;48.094;11.838;2024-03-02T04:43:26;22.60;;;7.60;;
70558;SDS011;58108;48.094;11.838;2024-03-02T04:45:52;19.52;;;7.80;;
70558;SDS011;58108;48.094;11.838;2024-03-02T04:48:17;18.27;;;7.20;;
70558;SDS011;58108;48.094;11.838;2024-03-02T04:50:44;20.33;;;7.60;;
70558;SDS011;58108;48.094;11.838;2024-03-02T04:53:10;18.87;;;7.43;;
70558;SDS011;58108;48.094;11.838;2024-03-02T04:55:35;18.35;;;6.85;;
70558;SDS011;58108;48.094;11.838;2024-03-02T04:58:04;14.88;;;6.28;;
70558;SDS011;58108;48.094;11.838;2024-03-02T05:00:29;18.77;;;6.83;;
70558;SDS011;58108;48.094;11.838;2024-03-02T05:02:55;18.50;;;7.20;;
70558;SDS011;58108;48.094;11.838;2024-03-02T05:05:20;17.13;;;7.33;;
70558;SDS011;58108;48.094;11.838;2024-03-02T05:07:46;18.07;;;7.27;;
70558;SDS011;58108;48.094;11.838;2024-03-02T05:10:11;17.95;;;7.00;;
70558;SDS011;58108;48.094;11.838;2024-03-02T05:12:37;17.27;;;6.93;;
70558;SDS011;58108;48.094;11.838;2024-03-02T05:15:08;16.77;;;6.97;;
70558;SDS011;58108;48.094;11.838;2024-03-02T05:17:38;18.65;;;7.78;;
70558;SDS011;58108;48.094;11.838;2024-03-02T05:20:05;17.33;;;7.57;;
70558;SDS011;58108;48.094;11.838;2024-03-02T05:22:33;21.15;;;7.13;;
70558;SDS011;58108;48.094;11.838;2024-03-02T05:24:59;17.00;;;6.00;;
70558;SDS011;58108;48.094;11.838;2024-03-02T05:27:26;15.95;;;6.00;;
70558;SDS011;58108;48.094;11.838;2024-03-02T05:29:52;18.75;;;6.78;;
70558;SDS011;58108;48.094;11.838;2024-03-02T05:32:17;14.40;;;6.33;;
70558;SDS011;58108;48.094;11.838;2024-03-02T05:34:43;18.80;;;6.57;;
70558;SDS011;58108;48.094;11.838;2024-03-02T05:37:08;20.87;;;7.80;;
70558;SDS011;58108;48.094;11.838;2024-03-02T05:39:34;19.10;;;7.18;;
70558;SDS011;58108;48.094;11.838;2024-03-02T05:41:59;17.53;;;6.83;;
70558;SDS011;58108;48.094;11.838;2024-03-02T05:44:25;18.70;;;7.53;;
70558;SDS011;58108;48.094;11.838;2024-03-02T05:46:50;20.40;;;8.07;;
70558;SDS011;58108;48.094;11.838;2024-03-02T05:49:16;21.38;;;8.02;;
70558;SDS011;58108;48.094;11.838;2024-03-02T05:51:41;22.93;;;8.30;;
70558;SDS011;58108;48.094;11.838;2024-03-02T05:54:07;22.30;;;8.67;;
70558;SDS011;58108;48.094;11.838;2024-03-02T05:56:32;24.02;;;9.52;;
70558;SDS011;58108;48.094;11.838;2024-03-02T05:58:58;24.88;;;8.93;;
70558;SDS011;58108;48.094;11.838;2024-03-02T06:01:39;22.73;;;8.75;;
70558;SDS011;58108;48.094;11.838;2024-03-02T06:04:06;24.00;;;9.45;;
70558;SDS011;58108;48.094;11.838;2024-03-02T06:06:32;21.92;;;8.73;;
70558;SDS011;58108;48.094;11.838;2024-03-02T06:09:02;20.25;;;8.43;;
70558;SDS011;58108;48.094;11.838;2024-03-02T06:11:33;19.42;;;7.70;;
70558;SDS011;58108;48.094;11.838;2024-03-02T06:14:00;21.45;;;7.97;;
70558;SDS011;58108;48.094;11.838;2024-03-02T06:16:25;21.10;;;7.50;;
70558;SDS011;58108;48.094;11.838;2024-03-02T06:18:51;19.77;;;8.17;;
70558;SDS011;58108;48.094;11.838;2024-03-02T06:21:16;21.55;;;8.00;;
70558;SDS011;58108;48.094;11.838;2024-03-02T06:23:43;20.77;;;7.70;;
70558;SDS011;58108;48.094;11.838;2024-03-02T06:26:09;22.02;;;8.20;;
70558;SDS011;58108;48.094;11.838;2024-03-02T06:28:34;23.10;;;8.50;;
70558;SDS011;58108;48.094;11.838;2024-03-02T06:31:00;23.90;;;8.13;;
70558;SDS011;58108;48.094;11.838;2024-03-02T06:33:26;22.17;;;9.35;;
70558;SDS011;58108;48.094;11.838;2024-03-02T06:35:51;22.07;;;8.23;;
70558;SDS011;58108;48.094;11.838;2024-03-02T06:38:17;20.83;;;7.97;;
70558;SDS011;58108;48.094;11.838;2024-03-02T06:40:43;20.10;;;8.47;;
70558;SDS011;58108;48.094;11.838;2024-03-02T06:43:08;21.83;;;8.60;;
70558;SDS011;58108;48.094;11.838;2024-03-02T06:45:34;20.63;;;7.68;;
70558;SDS011;58108;48.094;11.838;2024-03-02T06:48:00;19.48;;;8.18;;
70558;SDS011;58108;48.094;11.838;2024-03-02T06:50:25;22.40;;;8.13;;
70558;SDS011;58108;48.094;11.838;2024-03-02T06:52:52;19.35;;;8.00;;
70558;SDS011;58108;48.094;11.838;2024-03-02T06:55:17;22.43;;;8.20;;
70558;SDS011;58108;48.094;11.838;2024-03-02T06:57:43;22.27;;;8.27;;
70558;SDS011;58108;48.094;11.838;2024-03-02T07:00:08;21.73;;;8.52;;
70558;SDS011;58108;48.094;11.838;2024-03-02T07:02:35;21.67;;;8.45;;
70558;SDS011;58108;48.094;11.838;2024-03-02T07:05:02;25.38;;;9.25;;
70558;SDS011;58108;48.094;11.838;2024-03-02T07:07:28;24.05;;;8.68;;
70558;SDS011;58108;48.094;11.838;2024-03-02T07:09:53;22.00;;;9.00;;
70558;SDS011;58108;48.094;11.838;2024-03-02T07:12:19;22.40;;;8.67;;
70558;SDS011;58108;48.094;11.838;2024-03-02T07:14:44;21.60;;;8.63;;
70558;SDS011;58108;48.094;11.838;2024-03-02T07:17:22;20.07;;;8.03;;
70558;SDS011;58108;48.094;11.838;2024-03-02T07:19:47;18.70;;;8.18;;
70558;SDS011;58108;48.094;11.838;2024-03-02T07:22:13;21.07;;;8.07;;
70558;SDS011;58108;48.094;11.838;2024-03-02T07:24:42;19.88;;;8.18;;
70558;SDS011;58108;48.094;11.838;2024-03-02T07:27:12;21.07;;;9.03;;
70558;SDS011;58108;48.094;11.838;2024-03-02T07:29:38;18.73;;;7.88;;
70558;SDS011;58108;48.094;11.838;2024-03-02T07:32:05;22.35;;;8.95;;
70558;SDS011;58108;48.094;11.838;2024-03-02T07:34:31;21.48;;;8.68;;
70558;SDS011;58108;48.094;11.838;2024-03-02T07:36:56;23.20;;;8.80;;
70558;SDS011;58108;48.094;11.838;2024-03-02T07:39:22;26.05;;;8.70;;
70558;SDS011;58108;48.094;11.838;2024-03-02T07:41:48;25.05;;;9.07;;
70558;SDS011;58108;48.094;11.838;2024-03-02T07:44:14;20.83;;;8.52;;
70558;SDS011;58108;48.094;11.838;2024-03-02T07:46:43;28.03;;;10.03;;
70558;SDS011;58108;48.094;11.838;2024-03-02T07:49:09;24.27;;;10.27;;
70558;SDS011;58108;48.094;11.838;2024-03-02T07:51:35;26.02;;;9.45;;
70558;SDS011;58108;48.094;11.838;2024-03-02T07:54:01;25.27;;;9.48;;
70558;SDS011;58108;48.094;11.838;2024-03-02T07:56:27;28.63;;;9.95;;
70558;SDS011;58108;48.094;11.838;2024-03-02T07:58:53;26.33;;;10.13;;
70558;SDS011;58108;48.094;11.838;2024-03-02T08:01:19;26.57;;;10.43;;
70558;SDS011;58108;48.094;11.838;2024-03-02T08:03:45;27.77;;;10.48;;
70558;SDS011;58108;48.094;11.838;2024-03-02T08:06:18;26.88;;;10.23;;
70558;SDS011;58108;48.094;11.838;2024-03-02T08:08:46;26.48;;;9.80;;
70558;SDS011;58108;48.094;11.838;2024-03-02T08:11:12;26.57;;;9.93;;
70558;SDS011;58108;48.094;11.838;2024-03-02T08:13:38;26.25;;;9.75;;
70558;SDS011;58108;48.094;11.838;2024-03-02T08:16:03;27.57;;;9.77;;
70558;SDS011;58108;48.094;11.838;2024-03-02T08:18:32;26.50;;;9.50;;
70558;SDS011;58108;48.094;11.838;2024-03-02T08:20:58;25.93;;;9.37;;
70558;SDS011;58108;48.094;11.838;2024-03-02T08:23:23;29.50;;;10.15;;
70558;SDS011;58108;48.094;11.838;2024-03-02T08:25:49;24.97;;;9.30;;
70558;SDS011;58108;48.094;11.838;2024-03-02T08:28:14;29.52;;;10.68;;
70558;SDS011;58108;48.094;11.838;2024-03-02T08:30:40;25.77;;;9.40;;
70558;SDS011;58108;48.094;11.838;2024-03-02T08:33:05;28.67;;;10.57;;
70558;SDS011;58108;48.094;11.838;2024-03-02T08:35:31;26.97;;;9.60;;
70558;SDS011;58108;48.094;11.838;2024-03-02T08:38:01;30.30;;;11.35;;
70558;SDS011;58108;48.094;11.838;2024-03-02T08:40:29;29.38;;;11.23;;
70558;SDS011;58108;48.094;11.838;2024-03-02T08:42:55;32.77;;;11.50;;
70558;SDS011;58108;48.094;11.838;2024-03-02T08:45:21;34.00;;;11.05;;
70558;SDS011;58108;48.094;11.838;2024-03-02T08:47:47;28.90;;;9.93;;
70558;SDS011;58108;48.094;11.838;2024-03-02T08:50:12;27.38;;;9.77;;
70558;SDS011;58108;48.094;11.838;2024-03-02T08:52:38;30.93;;;10.63;;
70558;SDS011;58108;48.094;11.838;2024-03-02T08:55:04;27.10;;;9.20;;
70558;SDS011;58108;48.094;11.838;2024-03-02T08:57:30;27.15;;;9.73;;
70558;SDS011;58108;48.094;11.838;2024-03-02T08:59:56;26.23;;;10.55;;
70558;SDS011;58108;48.094;11.838;2024-03-02T09:02:22;33.53;;;10.98;;
70558;SDS011;58108;48.094;11.838;2024-03-02T09:04:48;27.15;;;10.18;;
70558;SDS011;58108;48.094;11.838;2024-03-02T09:07:14;29.55;;;10.32;;
70558;SDS011;58108;48.094;11.838;2024-03-02T09:09:40;30.95;;;10.80;;
70558;SDS011;58108;48.094;11.838;2024-03-02T09:12:05;24.17;;;9.53;;
70558;SDS011;58108;48.094;11.838;2024-03-02T09:14:32;27.27;;;9.48;;
70558;SDS011;58108;48.094;11.838;2024-03-02T09:16:58;29.97;;;10.23;;
70558;SDS011;58108;48.094;11.838;2024-03-02T09:19:23;27.08;;;10.40;;
70558;SDS011;58108;48.094;11.838;2024-03-02T09:21:49;27.70;;;8.50;;
70558;SDS011;58108;48.094;11.838;2024-03-02T09:24:15;34.58;;;11.20;;
70558;SDS011;58108;48.094;11.838;2024-03-02T09:26:41;28.97;;;9.37;;
70558;SDS011;58108;48.094;11.838;2024-03-02T09:29:06;31.23;;;10.17;;
70558;SDS011;58108;48.094;11.838;2024-03-02T09:31:32;27.35;;;9.98;;
70558;SDS011;58108;48.094;11.838;2024-03-02T09:33:57;27.83;;;10.27;;
70558;SDS011;58108;48.094;11.838;2024-03-02T09:36:23;29.47;;;10.00;;
70558;SDS011;58108;48.094;11.838;2024-03-02T09:38:49;27.20;;;10.18;;
70558;SDS011;58108;48.094;11.838;2024-03-02T09:41:15;28.90;;;10.20;;
70558;SDS011;58108;48.094;11.838;2024-03-02T09:43:40;29.87;;;10.50;;
70558;SDS011;58108;48.094;11.838;2024-03-02T09:46:10;29.73;;;10.20;;
70558;SDS011;58108;48.094;11.838;2024-03-02T09:48:36;34.58;;;10.45;;
70558;SDS011;58108;48.094;11.838;2024-03-02T09:51:02;25.83;;;9.87;;
70558;SDS011;58108;48.094;11.838;2024-03-02T09:53:31;30.08;;;10.32;;
70558;SDS011;58108;48.094;11.838;2024-03-02T09:56:00;29.73;;;10.55;;
70558;SDS011;58108;48.094;11.838;2024-03-02T09:58:26;25.30;;;9.30;;
70558;SDS011;58108;48.094;11.838;2024-03-02T10:00:52;26.83;;;10.20;;
70558;SDS011;58108;48.094;11.838;2024-03-02T10:03:20;28.33;;;10.00;;
70558;SDS011;58108;48.094;11.838;2024-03-02T10:05:48;26.33;;;9.18;;
70558;SDS011;58108;48.094;11.838;2024-03-02T10:08:13;24.93;;;9.67;;
70558;SDS011;58108;48.094;11.838;2024-03-02T10:10:40;26.00;;;9.47;;
70558;SDS011;58108;48.094;11.838;2024-03-02T10:13:09;25.25;;;9.68;;
70558;SDS011;58108;48.094;11.838;2024-03-02T10:15:39;22.08;;;9.25;;
70558;SDS011;58108;48.094;11.838;2024-03-02T10:18:12;20.80;;;8.02;;
70558;SDS011;58108;48.094;11.838;2024-03-02T10:20:38;24.23;;;9.00;;
70558;SDS011;58108;48.094;11.838;2024-03-02T10:23:14;21.50;;;8.75;;
70558;SDS011;58108;48.094;11.838;2024-03-02T10:25:41;23.10;;;8.25;;
70558;SDS011;58108;48.094;11.838;2024-03-02T10:28:07;18.10;;;6.88;;
70558;SDS011;58108;48.094;11.838;2024-03-02T10:30:33;19.43;;;7.33;;
70558;SDS011;58108;48.094;11.838;2024-03-02T10:33:00;19.17;;;7.40;;
70558;SDS011;58108;48.094;11.838;2024-03-02T10:35:26;17.95;;;6.85;;
70558;SDS011;58108;48.094;11.838;2024-03-02T10:37:52;16.80;;;5.83;;
70558;SDS011;58108;48.094;11.838;2024-03-02T10:40:21;13.35;;;4.90;;
70558;SDS011;58108;48.094;11.838;2024-03-02T10:42:46;10.00;;;3.75;;
70558;SDS011;58108;48.094;11.838;2024-03-02T10:45:14;11.20;;;3.65;;
70558;SDS011;58108;48.094;11.838;2024-03-02T10:47:42;12.52;;;4.72;;
70558;SDS011;58108;48.094;11.838;2024-03-02T10:50:09;13.02;;;4.63;;
70558;SDS011;58108;48.094;11.838;2024-03-02T10:52:35;11.02;;;5.00;;
70558;SDS011;58108;48.094;11.838;2024-03-02T10:55:02;11.85;;;4.97;;
70558;SDS011;58108;48.094;11.838;2024-03-02T10:57:38;11.13;;;4.35;;
70558;SDS011;58108;48.094;11.838;2024-03-02T11:00:07;14.50;;;4.87;;
70558;SDS011;58108;48.094;11.838;2024-03-02T11:02:54;13.20;;;5.57;;
70558;SDS011;58108;48.094;11.838;2024-03-02T11:05:23;16.10;;;5.88;;
70558;SDS011;58108;48.094;11.838;2024-03-02T11:08:02;13.57;;;6.28;;
70558;SDS011;58108;48.094;11.838;2024-03-02T11:10:37;13.30;;;5.35;;
70558;SDS011;58108;48.094;11.838;2024-03-02T11:13:09;14.13;;;5.17;;
70558;SDS011;58108;48.094;11.838;2024-03-02T11:15:37;13.65;;;5.25;;
70558;SDS011;58108;48.094;11.838;2024-03-02T11:18:05;14.43;;;6.00;;
70558;SDS011;58108;48.094;11.838;2024-03-02T11:20:40;16.92;;;6.10;;
70558;SDS011;58108;48.094;11.838;2024-03-02T11:23:09;14.02;;;4.95;;
70558;SDS011;58108;48.094;11.838;2024-03-02T11:25:35;15.77;;;6.27;;
70558;SDS011;58108;48.094;11.838;2024-03-02T11:28:02;15.52;;;6.15;;
70558;SDS011;58108;48.094;11.838;2024-03-02T11:33:01;16.30;;;6.97;;
70558;SDS011;58108;48.094;11.838;2024-03-02T11:35:33;14.73;;;6.30;;
70558;SDS011;58108;48.094;11.838;2024-03-02T11:38:00;14.47;;;6.13;;
70558;SDS011;58108;48.094;11.838;2024-03-02T11:40:26;14.23;;;5.90;;
70558;SDS011;58108;48.094;11.838;2024-03-02T11:42:53;13.88;;;5.30;;
70558;SDS011;58108;48.094;11.838;2024-03-02T11:45:37;12.68;;;5.55;;
70558;SDS011;58108;48.094;11.838;2024-03-02T11:48:08;11.33;;;4.73;;
70558;SDS011;58108;48.094;11.838;2024-03-02T11:50:42;23.70;;;13.18;;
70558;SDS011;58108;48.094;11.838;2024-03-02T11:53:14;13.60;;;6.53;;
70558;SDS011;58108;48.094;11.838;2024-03-02T11:55:40;12.73;;;5.78;;
70558;SDS011;58108;48.094;11.838;2024-03-02T11:58:06;9.25;;;4.50;;
70558;SDS011;58108;48.094;11.838;2024-03-02T12:00:32;8.63;;;4.27;;
70558;SDS011;58108;48.094;11.838;2024-03-02T12:03:08;12.23;;;5.05;;
70558;SDS011;58108;48.094;11.838;2024-03-02T12:05:35;9.13;;;4.10;;
70558;SDS011;58108;48.094;11.838;2024-03-02T12:08:04;7.87;;;4.13;;
70558;SDS011;58108;48.094;11.838;2024-03-02T12:10:34;8.45;;;4.05;;
70558;SDS011;58108;48.094;11.838;2024-03-02T12:13:05;9.55;;;4.22;;
70558;SDS011;58108;48.094;11.838;2024-03-02T12:15:36;8.52;;;4.57;;
70558;SDS011;58108;48.094;11.838;2024-03-02T12:18:02;7.78;;;4.13;;
70558;SDS011;58108;48.094;11.838;2024-03-02T12:20:29;8.30;;;4.53;;
70558;SDS011;58108;48.094;11.838;2024-03-02T12:22:57;8.63;;;4.30;;
70558;SDS011;58108;48.094;11.838;2024-03-02T12:25:24;10.10;;;4.90;;
70558;SDS011;58108;48.094;11.838;2024-03-02T12:27:51;10.15;;;4.93;;
70558;SDS011;58108;48.094;11.838;2024-03-02T12:30:19;10.00;;;5.57;;
70558;SDS011;58108;48.094;11.838;2024-03-02T12:32:45;10.83;;;5.90;;
70558;SDS011;58108;48.094;11.838;2024-03-02T12:35:11;13.60;;;6.10;;
70558;SDS011;58108;48.094;11.838;2024-03-02T12:40:16;10.52;;;5.18;;
70558;SDS011;58108;48.094;11.838;2024-03-02T12:42:44;10.13;;;5.55;;
70558;SDS011;58108;48.094;11.838;2024-03-02T12:45:11;9.40;;;5.27;;
70558;SDS011;58108;48.094;11.838;2024-03-02T12:47:37;11.73;;;5.50;;
70558;SDS011;58108;48.094;11.838;2024-03-02T12:50:05;11.68;;;6.10;;
70558;SDS011;58108;48.094;11.838;2024-03-02T12:52:31;14.00;;;6.32;;
70558;SDS011;58108;48.094;11.838;2024-03-02T12:55:00;11.77;;;6.70;;
70558;SDS011;58108;48.094;11.838;2024-03-02T12:57:29;11.93;;;5.97;;
70558;SDS011;58108;48.094;11.838;2024-03-02T13:00:02;9.30;;;4.85;;
70558;SDS011;58108;48.094;11.838;2024-03-02T13:02:41;8.30;;;4.50;;
70558;SDS011;58108;48.094;11.838;2024-03-02T13:05:07;8.00;;;4.35;;
70558;SDS011;58108;48.094;11.838;2024-03-02T13:07:36;8.50;;;4.10;;
70558;SDS011;58108;48.094;11.838;2024-03-02T13:10:03;8.70;;;4.00;;
70558;SDS011;58108;48.094;11.838;2024-03-02T13:12:30;9.25;;;4.35;;
70558;SDS011;58108;48.094;11.838;2024-03-02T13:14:57;9.80;;;4.43;;
70558;SDS011;58108;48.094;11.838;2024-03-02T13:17:23;7.07;;;3.38;;
70558;SDS011;58108;48.094;11.838;2024-03-02T13:19:55;7.67;;;4.07;;
70558;SDS011;58108;48.094;11.838;2024-03-02T13:22:22;8.15;;;4.38;;
70558;SDS011;58108;48.094;11.838;2024-03-02T13:24:49;7.90;;;3.72;;
70558;SDS011;58108;48.094;11.838;2024-03-02T13:27:15;6.95;;;4.00;;
70558;SDS011;58108;48.094;11.838;2024-03-02T13:29:44;10.53;;;4.23;;
70558;SDS011;58108;48.094;11.838;2024-03-02T13:32:10;8.77;;;4.07;;
70558;SDS011;58108;48.094;11.838;2024-03-02T13:34:35;8.80;;;4.10;;
70558;SDS011;58108;48.094;11.838;2024-03-02T13:37:02;8.80;;;4.10;;
70558;SDS011;58108;48.094;11.838;2024-03-02T13:39:29;10.80;;;4.30;;
70558;SDS011;58108;48.094;11.838;2024-03-02T13:41:57;8.45;;;3.83;;
70558;SDS011;58108;48.094;11.838;2024-03-02T13:44:29;10.45;;;4.47;;
70558;SDS011;58108;48.094;11.838;2024-03-02T13:46:55;9.52;;;4.43;;
70558;SDS011;58108;48.094;11.838;2024-03-02T13:49:21;9.97;;;4.30;;
70558;SDS011;58108;48.094;11.838;2024-03-02T13:51:48;8.48;;;4.43;;
70558;SDS011;58108;48.094;11.838;2024-03-02T13:54:14;9.57;;;5.07;;
70558;SDS011;58108;48.094;11.838;2024-03-02T13:56:39;9.98;;;4.43;;
70558;SDS011;58108;48.094;11.838;2024-03-02T13:59:06;9.50;;;4.20;;
70558;SDS011;58108;48.094;11.838;2024-03-02T14:01:31;9.10;;;3.92;;
70558;SDS011;58108;48.094;11.838;2024-03-02T14:03:58;7.07;;;3.67;;
70558;SDS011;58108;48.094;11.838;2024-03-02T14:06:23;8.27;;;3.97;;
70558;SDS011;58108;48.094;11.838;2024-03-02T14:08:52;8.40;;;3.78;;
70558;SDS011;58108;48.094;11.838;2024-03-02T14:11:18;8.90;;;4.68;;
70558;SDS011;58108;48.094;11.838;2024-03-02T14:13:44;10.15;;;4.53;;
70558;SDS011;58108;48.094;11.838;2024-03-02T14:16:15;11.30;;;5.18;;
70558;SDS011;58108;48.094;11.838;2024-03-02T14:18:40;10.63;;;4.63;;
70558;SDS011;58108;48.094;11.838;2024-03-02T14:21:07;9.43;;;4.50;;
70558;SDS011;58108;48.094;11.838;2024-03-02T14:23:33;8.27;;;4.40;;
70558;SDS011;58108;48.094;11.838;2024-03-02T14:25:59;11.73;;;5.00;;
70558;SDS011;58108;48.094;11.838;2024-03-02T14:28:24;8.88;;;4.88;;